Time;durP1;ratioP1;P1;durP2;ratioP2;P2;SDS_P1;SDS_P2;PMS_P1;PMS_P2;Temp;Humidity;BMP_temperature;BMP_pressure;BME280_temperature;BME280_humidity;BME280_pressure;Samples;Min_cycle;Max_cycle;Signal;HPM_P1;HPM_P2
2023/05/15 00:00:17;;;;;;;8.57;5.25;;;;;;;;;;4994898;28;20450;-66
2023/05/15 00:02:44;;;;;;;8.48;5.13;;;;;;;;;;4995056;28;20037;-67
2023/05/15 00:05:11;;;;;;;12.00;6.07;;;;;;;;;;4994550;28;20488;-67
2023/05/15 00:07:38;;;;;;;7.80;5.65;;;;;;;;;;4994746;28;20023;-66
2023/05/15 00:10:04;;;;;;;8.20;4.80;;;;;;;;;;4994887;28;20028;-67
2023/05/15 00:12:31;;;;;;;7.13;5.32;;;;;;;;;;4994615;28;20526;-66
2023/05/15 00:14:57;;;;;;;7.00;5.55;;;;;;;;;;4994670;28;20029;-67
2023/05/15 00:17:23;;;;;;;13.68;5.78;;;;;;;;;;4994806;28;20030;-67
2023/05/15 00:19:50;;;;;;;7.90;5.15;;;;;;;;;;4993177;28;20472;-67
2023/05/15 00:22:16;;;;;;;6.93;5.75;;;;;;;;;;4994315;28;20045;-66
2023/05/15 00:24:42;;;;;;;9.30;5.75;;;;;;;;;;4994338;28;20022;-67
2023/05/15 00:27:09;;;;;;;8.43;5.88;;;;;;;;;;4994755;28;20026;-67
2023/05/15 00:29:35;;;;;;;8.50;5.25;;;;;;;;;;4994313;28;20030;-67
2023/05/15 00:32:02;;;;;;;8.80;5.95;;;;;;;;;;4992849;28;20510;-67
2023/05/15 00:34:28;;;;;;;10.45;5.72;;;;;;;;;;4994000;28;20479;-67
2023/05/15 00:36:55;;;;;;;6.88;5.85;;;;;;;;;;4993600;28;20027;-67
2023/05/15 00:39:21;;;;;;;11.00;5.90;;;;;;;;;;4994097;28;20026;-67
2023/05/15 00:41:48;;;;;;;6.85;5.40;;;;;;;;;;4994223;28;20080;-66
2023/05/15 00:44:15;;;;;;;11.45;6.15;;;;;;;;;;4994281;28;20038;-66
2023/05/15 00:46:42;;;;;;;14.60;5.95;;;;;;;;;;4994052;28;20505;-67
2023/05/15 00:49:12;;;;;;;8.25;5.70;;;;;;;;;;4994018;28;20030;-67
2023/05/15 00:51:41;;;;;;;7.47;4.95;;;;;;;;;;4994023;28;20030;-67
2023/05/15 00:54:07;;;;;;;10.48;6.13;;;;;;;;;;4993917;28;20031;-66
2023/05/15 00:56:34;;;;;;;9.73;5.75;;;;;;;;;;4993948;28;20026;-67
2023/05/15 00:59:02;;;;;;;8.98;5.07;;;;;;;;;;4993940;28;20023;-67
2023/05/15 01:01:33;;;;;;;8.57;5.88;;;;;;;;;;4994033;28;20475;-66
2023/05/15 01:04:00;;;;;;;9.45;5.38;;;;;;;;;;4993512;28;20032;-67
2023/05/15 01:06:26;;;;;;;11.93;5.63;;;;;;;;;;4993779;28;20084;-67
2023/05/15 01:08:55;;;;;;;9.23;5.88;;;;;;;;;;4993596;28;20034;-67
2023/05/15 01:11:24;;;;;;;7.43;5.53;;;;;;;;;;4993526;28;20024;-67
2023/05/15 01:13:50;;;;;;;8.98;5.75;;;;;;;;;;4992251;28;20093;-67
2023/05/15 01:16:17;;;;;;;7.60;6.18;;;;;;;;;;4993479;28;20019;-67
2023/05/15 01:18:43;;;;;;;6.95;5.68;;;;;;;;;;4993300;28;20033;-67
2023/05/15 01:21:09;;;;;;;9.10;5.82;;;;;;;;;;4993479;28;20026;-67
2023/05/15 01:23:51;;;;;;;9.05;5.95;;;;;;;;;;4993353;28;20488;-67
2023/05/15 01:26:20;;;;;;;9.68;6.10;;;;;;;;;;4993525;28;20028;-66
2023/05/15 01:28:50;;;;;;;7.82;5.50;;;;;;;;;;4993335;28;20022;-66
2023/05/15 01:31:19;;;;;;;11.93;5.68;;;;;;;;;;4991708;28;20541;-67
2023/05/15 01:33:51;;;;;;;7.60;5.47;;;;;;;;;;4993144;28;20035;-67
2023/05/15 01:36:33;;;;;;;9.93;5.90;;;;;;;;;;4993228;28;20027;-67
2023/05/15 01:39:02;;;;;;;7.35;5.95;;;;;;;;;;4992976;28;20050;-67
2023/05/15 01:41:34;;;;;;;8.25;5.68;;;;;;;;;;4992964;28;20060;-66
2023/05/15 01:44:10;;;;;;;11.65;6.28;;;;;;;;;;4993034;28;20026;-67
2023/05/15 01:46:38;;;;;;;9.98;5.85;;;;;;;;;;4992834;28;20030;-67
2023/05/15 01:49:07;;;;;;;8.80;6.38;;;;;;;;;;4993379;28;20026;-67
2023/05/15 01:51:33;;;;;;;9.05;6.32;;;;;;;;;;4992821;28;20026;-67
2023/05/15 01:54:00;;;;;;;11.02;5.63;;;;;;;;;;4992834;28;20046;-67
2023/05/15 01:56:26;;;;;;;8.25;6.07;;;;;;;;;;4992873;28;20030;-67
2023/05/15 01:58:54;;;;;;;12.60;5.50;;;;;;;;;;4993144;28;20038;-67
2023/05/15 02:01:20;;;;;;;9.57;5.40;;;;;;;;;;4992690;28;20030;-67
2023/05/15 02:03:47;;;;;;;10.45;5.35;;;;;;;;;;4992743;28;20038;-67
2023/05/15 02:06:13;;;;;;;8.32;5.70;;;;;;;;;;4992793;28;20399;-67
2023/05/15 02:08:41;;;;;;;7.18;6.30;;;;;;;;;;4992735;28;20385;-67
2023/05/15 02:11:07;;;;;;;7.47;6.10;;;;;;;;;;4992719;28;20045;-66
2023/05/15 02:13:34;;;;;;;9.95;6.50;;;;;;;;;;4992501;28;20038;-67
2023/05/15 02:16:00;;;;;;;8.07;6.57;;;;;;;;;;4992449;28;20018;-67
2023/05/15 02:18:27;;;;;;;8.77;6.32;;;;;;;;;;4992911;28;20031;-67
2023/05/15 02:20:54;;;;;;;7.00;5.90;;;;;;;;;;4992615;28;20018;-66
2023/05/15 02:23:20;;;;;;;8.27;5.82;;;;;;;;;;4992838;28;20081;-67
2023/05/15 02:26:06;;;;;;;7.35;5.55;;;;;;;;;;4992637;28;20026;-66
2023/05/15 02:28:56;;;;;;;10.85;6.72;;;;;;;;;;4992647;28;20483;-67
2023/05/15 02:31:35;;;;;;;14.45;6.75;;;;;;;;;;5009764;28;20053;-67
2023/05/15 02:34:10;;;;;;;9.95;6.97;;;;;;;;;;5009879;28;20061;-66
2023/05/15 02:36:40;;;;;;;8.27;6.20;;;;;;;;;;5010251;28;20034;-67
2023/05/15 02:39:06;;;;;;;9.20;6.35;;;;;;;;;;5009997;28;20029;-66
2023/05/15 02:41:34;;;;;;;8.80;6.68;;;;;;;;;;5009984;28;20036;-66
2023/05/15 02:44:01;;;;;;;9.48;6.53;;;;;;;;;;5009656;28;20549;-66
2023/05/15 02:46:27;;;;;;;7.88;6.80;;;;;;;;;;5009860;28;20120;-67
2023/05/15 02:48:54;;;;;;;9.48;6.60;;;;;;;;;;5010081;28;20042;-66
2023/05/15 02:51:20;;;;;;;12.68;7.43;;;;;;;;;;5009905;28;20050;-66
2023/05/15 02:53:47;;;;;;;10.02;7.45;;;;;;;;;;5009759;28;20044;-67
2023/05/15 02:56:13;;;;;;;9.80;7.03;;;;;;;;;;5009784;28;20040;-66
2023/05/15 02:58:40;;;;;;;9.93;6.80;;;;;;;;;;5009553;28;20544;-66
2023/05/15 03:01:06;;;;;;;12.65;7.47;;;;;;;;;;5013300;28;20048;-66
2023/05/15 03:03:33;;;;;;;9.32;7.50;;;;;;;;;;5013453;28;20034;-66
2023/05/15 03:06:02;;;;;;;9.02;7.07;;;;;;;;;;5013350;28;20030;-66
2023/05/15 03:08:28;;;;;;;11.07;7.93;;;;;;;;;;4993190;28;20043;-67
2023/05/15 03:10:55;;;;;;;9.68;7.15;;;;;;;;;;4976352;28;20019;-66
2023/05/15 03:13:21;;;;;;;13.20;7.15;;;;;;;;;;4976186;28;20034;-66
2023/05/15 03:15:47;;;;;;;9.48;7.63;;;;;;;;;;4976413;28;20500;-66
2023/05/15 03:18:14;;;;;;;10.68;7.55;;;;;;;;;;4976274;28;20519;-67
2023/05/15 03:20:40;;;;;;;9.43;7.82;;;;;;;;;;4976221;28;20037;-66
2023/05/15 03:23:06;;;;;;;10.55;7.40;;;;;;;;;;4976354;28;20034;-66
2023/05/15 03:25:33;;;;;;;10.60;7.97;;;;;;;;;;4976148;28;20027;-67
2023/05/15 03:27:59;;;;;;;10.55;7.60;;;;;;;;;;4975871;28;20472;-67
2023/05/15 03:30:25;;;;;;;9.57;7.85;;;;;;;;;;4976070;28;20103;-66
2023/05/15 03:32:52;;;;;;;11.95;8.05;;;;;;;;;;4975719;28;20061;-67
2023/05/15 03:35:18;;;;;;;11.05;7.60;;;;;;;;;;4975971;28;20403;-66
2023/05/15 03:37:44;;;;;;;10.60;7.28;;;;;;;;;;4975908;28;20027;-66
2023/05/15 03:40:11;;;;;;;9.82;7.93;;;;;;;;;;4976020;28;20038;-66
2023/05/15 03:42:37;;;;;;;12.88;8.38;;;;;;;;;;4975708;28;20472;-67
2023/05/15 03:45:04;;;;;;;11.05;8.15;;;;;;;;;;4976001;28;20031;-66
2023/05/15 03:47:30;;;;;;;11.07;8.38;;;;;;;;;;4975608;28;20027;-66
2023/05/15 03:49:57;;;;;;;10.07;7.78;;;;;;;;;;4980792;28;20022;-66
2023/05/15 03:52:23;;;;;;;12.85;8.02;;;;;;;;;;4994958;28;20045;-67
2023/05/15 03:54:49;;;;;;;16.90;8.88;;;;;;;;;;4995174;28;20034;-66
2023/05/15 03:57:16;;;;;;;13.32;9.23;;;;;;;;;;4995082;28;20022;-66
2023/05/15 03:59:42;;;;;;;11.70;8.80;;;;;;;;;;4994849;28;20044;-67
2023/05/15 04:02:08;;;;;;;11.90;8.85;;;;;;;;;;4994939;28;20410;-66
2023/05/15 04:04:35;;;;;;;15.07;8.98;;;;;;;;;;4994790;28;20038;-66
2023/05/15 04:07:01;;;;;;;14.68;8.30;;;;;;;;;;4994830;28;20411;-66
2023/05/15 04:09:28;;;;;;;10.38;8.13;;;;;;;;;;4994747;28;20022;-66
2023/05/15 04:11:54;;;;;;;13.10;8.63;;;;;;;;;;4993454;28;20033;-66
2023/05/15 04:14:20;;;;;;;15.85;8.70;;;;;;;;;;4994600;28;20034;-66
2023/05/15 04:16:47;;;;;;;14.52;8.90;;;;;;;;;;4994646;28;20026;-66
2023/05/15 04:19:13;;;;;;;14.00;9.27;;;;;;;;;;4994628;28;20026;-66
2023/05/15 04:21:39;;;;;;;9.38;8.45;;;;;;;;;;4994651;28;20056;-67
2023/05/15 04:24:07;;;;;;;11.00;8.82;;;;;;;;;;4994599;28;20030;-66
2023/05/15 04:26:33;;;;;;;12.60;9.02;;;;;;;;;;4994426;28;20032;-67
2023/05/15 04:29:00;;;;;;;15.60;9.25;;;;;;;;;;4994414;28;20484;-67
2023/05/15 04:31:26;;;;;;;11.88;8.77;;;;;;;;;;4994188;28;20037;-67
2023/05/15 04:33:52;;;;;;;14.75;9.45;;;;;;;;;;4994249;28;20038;-66
2023/05/15 04:36:19;;;;;;;11.65;8.82;;;;;;;;;;5025821;28;20038;-66
2023/05/15 04:38:46;;;;;;;10.82;8.75;;;;;;;;;;4994536;28;20026;-67
2023/05/15 04:41:12;;;;;;;15.45;10.23;;;;;;;;;;4994105;28;20026;-66
2023/05/15 04:43:38;;;;;;;20.23;10.35;;;;;;;;;;4994003;28;20088;-66
2023/05/15 04:46:05;;;;;;;16.65;11.38;;;;;;;;;;4994016;28;20029;-66
2023/05/15 04:48:31;;;;;;;17.63;11.45;;;;;;;;;;4994368;28;20030;-67
2023/05/15 04:50:57;;;;;;;13.35;10.55;;;;;;;;;;4994229;28;20022;-66
2023/05/15 04:53:24;;;;;;;15.35;11.27;;;;;;;;;;4993810;28;20395;-67
2023/05/15 04:55:50;;;;;;;16.52;10.18;;;;;;;;;;4994033;28;20036;-66
2023/05/15 04:58:17;;;;;;;17.42;10.55;;;;;;;;;;4993762;28;20022;-66
2023/05/15 05:00:43;;;;;;;13.95;10.70;;;;;;;;;;4993696;28;20034;-66
2023/05/15 05:03:10;;;;;;;14.98;10.75;;;;;;;;;;4992812;28;20038;-66
2023/05/15 05:05:36;;;;;;;15.35;10.02;;;;;;;;;;4994056;28;20018;-66
2023/05/15 05:08:02;;;;;;;18.35;10.60;;;;;;;;;;4993741;28;20018;-66
2023/05/15 05:10:29;;;;;;;16.20;10.60;;;;;;;;;;4993487;28;20030;-66
2023/05/15 05:12:55;;;;;;;18.58;11.15;;;;;;;;;;4993600;28;20036;-66
2023/05/15 05:15:21;;;;;;;16.65;10.68;;;;;;;;;;4993454;28;20488;-66
2023/05/15 05:17:48;;;;;;;12.88;9.60;;;;;;;;;;4993849;28;20030;-66
2023/05/15 05:20:14;;;;;;;14.60;10.05;;;;;;;;;;4993433;28;20019;-66
2023/05/15 05:22:41;;;;;;;12.95;9.32;;;;;;;;;;4993036;28;20395;-66
2023/05/15 05:25:07;;;;;;;11.63;9.63;;;;;;;;;;4993236;28;20029;-66
2023/05/15 05:27:34;;;;;;;13.60;9.30;;;;;;;;;;4993167;28;20026;-66
2023/05/15 05:30:00;;;;;;;13.20;9.07;;;;;;;;;;4993136;28;20484;-67
2023/05/15 05:32:26;;;;;;;11.35;9.07;;;;;;;;;;4992994;28;20046;-66
2023/05/15 05:34:53;;;;;;;12.60;9.65;;;;;;;;;;4993531;28;20476;-66
2023/05/15 05:37:19;;;;;;;11.90;9.63;;;;;;;;;;4993370;28;20041;-66
2023/05/15 05:39:45;;;;;;;14.55;9.52;;;;;;;;;;4992953;28;20042;-67
2023/05/15 05:42:12;;;;;;;12.40;9.13;;;;;;;;;;4993395;28;20026;-66
2023/05/15 05:44:38;;;;;;;12.73;8.98;;;;;;;;;;4993030;28;20029;-67
2023/05/15 05:47:04;;;;;;;13.98;9.13;;;;;;;;;;4993351;28;20035;-66
2023/05/15 05:49:31;;;;;;;13.55;8.95;;;;;;;;;;4992907;28;20025;-66
2023/05/15 05:52:04;;;;;;;11.48;8.75;;;;;;;;;;4992989;28;20025;-66
2023/05/15 05:54:30;;;;;;;16.38;8.98;;;;;;;;;;4992501;28;20080;-66
2023/05/15 05:56:56;;;;;;;11.48;8.25;;;;;;;;;;4993030;28;20129;-66
2023/05/15 05:59:23;;;;;;;11.52;8.93;;;;;;;;;;4992675;28;20022;-66
2023/05/15 06:01:49;;;;;;;10.40;8.48;;;;;;;;;;4991533;28;20034;-67
2023/05/15 06:04:16;;;;;;;11.07;8.93;;;;;;;;;;4992990;28;20030;-67
2023/05/15 06:06:42;;;;;;;9.52;8.32;;;;;;;;;;4992812;28;20030;-66
2023/05/15 06:09:09;;;;;;;13.68;8.50;;;;;;;;;;4993012;28;20015;-66
2023/05/15 06:11:36;;;;;;;12.80;9.07;;;;;;;;;;4989502;28;20026;-66
2023/05/15 06:14:02;;;;;;;9.60;8.05;;;;;;;;;;4992145;28;20041;-66
2023/05/15 06:16:28;;;;;;;10.13;8.13;;;;;;;;;;4991855;28;20026;-66
2023/05/15 06:18:55;;;;;;;9.25;7.68;;;;;;;;;;4992494;28;20030;-66
2023/05/15 06:21:21;;;;;;;9.13;7.47;;;;;;;;;;4992053;28;20019;-66
2023/05/15 06:23:47;;;;;;;13.98;7.35;;;;;;;;;;4991743;28;20403;-66
2023/05/15 06:26:14;;;;;;;14.65;7.20;;;;;;;;;;4992117;28;20026;-66
2023/05/15 06:28:40;;;;;;;8.93;6.95;;;;;;;;;;4992202;28;20030;-66
2023/05/15 06:31:06;;;;;;;9.30;7.57;;;;;;;;;;4992505;28;20028;-66
2023/05/15 06:33:32;;;;;;;12.90;6.65;;;;;;;;;;4992031;28;20499;-66
2023/05/15 06:35:59;;;;;;;8.82;7.07;;;;;;;;;;4992314;28;20391;-66
2023/05/15 06:38:25;;;;;;;9.13;7.38;;;;;;;;;;4994582;28;20084;-66
2023/05/15 06:40:51;;;;;;;9.75;6.47;;;;;;;;;;4994252;28;20372;-66
2023/05/15 06:43:18;;;;;;;10.55;6.72;;;;;;;;;;4994604;28;20044;-66
2023/05/15 06:45:44;;;;;;;7.40;6.65;;;;;;;;;;4992954;28;20503;-66
2023/05/15 06:48:11;;;;;;;8.00;7.10;;;;;;;;;;4997057;28;20030;-67
2023/05/15 06:50:37;;;;;;;9.68;6.88;;;;;;;;;;4995544;28;20037;-69
2023/05/15 06:53:03;;;;;;;13.90;6.93;;;;;;;;;;4996048;28;20530;-67
2023/05/15 06:55:30;;;;;;;11.48;6.40;;;;;;;;;;4995540;28;20488;-66
2023/05/15 06:57:56;;;;;;;10.90;6.90;;;;;;;;;;4994655;28;20438;-66
2023/05/15 07:00:22;;;;;;;9.27;6.82;;;;;;;;;;4995287;28;20385;-66
2023/05/15 07:02:49;;;;;;;8.32;6.93;;;;;;;;;;4995239;28;20030;-67
2023/05/15 07:05:15;;;;;;;8.30;6.63;;;;;;;;;;4994884;28;20029;-67
2023/05/15 07:07:42;;;;;;;8.27;6.60;;;;;;;;;;4993586;28;20026;-67
2023/05/15 07:10:08;;;;;;;7.05;6.18;;;;;;;;;;4995081;28;20026;-76
2023/05/15 07:12:35;;;;;;;10.60;6.88;;;;;;;;;;4994597;28;20026;-60
2023/05/15 07:15:01;;;;;;;10.80;6.65;;;;;;;;;;4993476;28;20042;-62
2023/05/15 07:17:27;;;;;;;10.63;7.18;;;;;;;;;;4993399;28;20034;-66
2023/05/15 07:19:54;;;;;;;7.93;7.13;;;;;;;;;;4993061;28;20034;-67
2023/05/15 07:22:20;;;;;;;9.77;7.53;;;;;;;;;;4993891;28;20036;-67
2023/05/15 07:24:46;;;;;;;8.73;6.95;;;;;;;;;;4992655;28;20110;-67
2023/05/15 07:27:13;;;;;;;9.15;7.60;;;;;;;;;;4994283;28;20026;-68
2023/05/15 07:29:39;;;;;;;12.68;7.00;;;;;;;;;;4993941;28;20038;-69
2023/05/15 07:32:06;;;;;;;11.70;6.78;;;;;;;;;;4994110;28;20054;-69
2023/05/15 07:34:32;;;;;;;12.13;6.95;;;;;;;;;;4993400;28;20410;-69
2023/05/15 07:36:58;;;;;;;8.00;6.13;;;;;;;;;;4992439;28;20030;-71
2023/05/15 07:39:25;;;;;;;11.48;6.85;;;;;;;;;;5008828;28;20038;-75
2023/05/15 07:41:51;;;;;;;8.45;6.70;;;;;;;;;;4994900;28;20033;-72
2023/05/15 07:44:17;;;;;;;8.32;6.63;;;;;;;;;;4995690;28;20383;-70
2023/05/15 07:46:44;;;;;;;8.15;6.85;;;;;;;;;;4994706;28;20022;-70
2023/05/15 07:49:10;;;;;;;7.50;6.38;;;;;;;;;;4994712;28;20030;-70
2023/05/15 07:51:36;;;;;;;7.47;6.55;;;;;;;;;;4995194;28;20032;-70
2023/05/15 07:54:03;;;;;;;11.65;7.10;;;;;;;;;;4994662;28;20483;-70
2023/05/15 07:56:29;;;;;;;10.07;7.15;;;;;;;;;;4994364;28;20036;-69
2023/05/15 07:58:56;;;;;;;14.98;7.13;;;;;;;;;;4994548;28;20449;-70
2023/05/15 08:01:22;;;;;;;9.85;7.40;;;;;;;;;;4993281;28;20039;-69
2023/05/15 08:03:48;;;;;;;8.25;7.07;;;;;;;;;;4993155;28;20418;-68
2023/05/15 08:06:15;;;;;;;8.65;6.82;;;;;;;;;;4993496;28;20092;-70
2023/05/15 08:08:41;;;;;;;9.63;7.03;;;;;;;;;;4993594;28;20022;-71
2023/05/15 08:11:07;;;;;;;9.20;6.40;;;;;;;;;;4994432;28;20029;-70
2023/05/15 08:13:34;;;;;;;7.25;6.53;;;;;;;;;;4994098;28;20042;-69
2023/05/15 08:16:00;;;;;;;8.57;6.85;;;;;;;;;;4994431;28;20034;-70
2023/05/15 08:18:26;;;;;;;9.25;7.07;;;;;;;;;;4993879;28;20026;-68
2023/05/15 08:20:53;;;;;;;11.40;6.57;;;;;;;;;;4994360;28;20026;-69
2023/05/15 08:23:19;;;;;;;6.93;6.22;;;;;;;;;;4994125;28;20491;-69
2023/05/15 08:25:45;;;;;;;11.25;6.45;;;;;;;;;;4994312;28;20029;-69
2023/05/15 08:28:12;;;;;;;7.15;6.43;;;;;;;;;;4993866;28;20011;-70
2023/05/15 08:30:38;;;;;;;8.18;6.30;;;;;;;;;;4994258;28;20036;-68
2023/05/15 08:33:04;;;;;;;6.15;5.55;;;;;;;;;;4993328;28;20038;-70
2023/05/15 08:35:31;;;;;;;9.38;5.68;;;;;;;;;;4993514;28;20022;-72
2023/05/15 08:37:57;;;;;;;7.75;5.13;;;;;;;;;;4993728;28;20022;-70
2023/05/15 08:40:24;;;;;;;8.02;4.90;;;;;;;;;;4993832;28;21093;-70
2023/05/15 08:42:53;;;;;;;15.32;4.97;;;;;;;;;;4993409;28;20040;-72
2023/05/15 08:45:20;;;;;;;5.68;4.70;;;;;;;;;;4993682;28;20023;-67
2023/05/15 08:47:46;;;;;;;7.10;5.07;;;;;;;;;;4993028;28;20032;-71
2023/05/15 08:50:14;;;;;;;7.93;4.90;;;;;;;;;;4992988;28;20434;-70
2023/05/15 08:52:41;;;;;;;8.60;5.18;;;;;;;;;;4993249;28;20042;-69
2023/05/15 08:55:09;;;;;;;10.75;4.63;;;;;;;;;;4993838;28;20030;-72
2023/05/15 08:57:36;;;;;;;9.32;4.78;;;;;;;;;;4993179;28;20022;-72
2023/05/15 09:00:07;;;;;;;4.95;4.07;;;;;;;;;;4992950;28;20066;-71
2023/05/15 09:02:37;;;;;;;7.30;4.82;;;;;;;;;;4993072;28;20509;-70
2023/05/15 09:05:05;;;;;;;5.50;4.15;;;;;;;;;;4992273;28;20030;-71
2023/05/15 09:07:31;;;;;;;6.25;3.78;;;;;;;;;;4993328;28;20015;-72
2023/05/15 09:09:58;;;;;;;4.25;3.38;;;;;;;;;;4993091;28;20512;-71
2023/05/15 09:12:25;;;;;;;7.20;3.78;;;;;;;;;;4991932;28;20033;-71
2023/05/15 09:14:51;;;;;;;5.18;3.80;;;;;;;;;;4993341;28;20034;-71
2023/05/15 09:17:18;;;;;;;5.07;3.60;;;;;;;;;;4992544;28;20019;-73
2023/05/15 09:19:44;;;;;;;4.10;3.70;;;;;;;;;;4992987;28;20456;-69
2023/05/15 09:22:21;;;;;;;4.38;3.30;;;;;;;;;;4993091;28;20028;-71
2023/05/15 09:24:51;;;;;;;5.35;3.20;;;;;;;;;;4992955;28;20034;-68
2023/05/15 09:27:17;;;;;;;4.05;3.40;;;;;;;;;;4992677;28;20018;-69
2023/05/15 09:29:44;;;;;;;7.47;3.97;;;;;;;;;;4992426;28;20034;-70
2023/05/15 09:32:11;;;;;;;6.10;3.30;;;;;;;;;;5005773;28;20091;-70
2023/05/15 09:34:38;;;;;;;6.10;3.40;;;;;;;;;;5012353;28;20060;-70
2023/05/15 09:37:06;;;;;;;5.35;3.72;;;;;;;;;;5012192;28;20032;-72
2023/05/15 09:39:33;;;;;;;5.97;3.10;;;;;;;;;;5012618;28;20084;-72
2023/05/15 09:42:06;;;;;;;6.28;3.35;;;;;;;;;;4995145;28;20503;-73
2023/05/15 09:44:35;;;;;;;6.28;3.25;;;;;;;;;;4993693;28;20025;-71
2023/05/15 09:47:04;;;;;;;3.25;2.83;;;;;;;;;;4992830;28;20029;-81
2023/05/15 09:49:31;;;;;;;7.20;3.60;;;;;;;;;;4990157;28;20033;-71
2023/05/15 09:51:58;;;;;;;4.38;3.20;;;;;;;;;;4992715;28;20030;-72
2023/05/15 09:54:26;;;;;;;3.90;3.35;;;;;;;;;;4991956;28;20034;-71
2023/05/15 09:56:52;;;;;;;6.47;3.70;;;;;;;;;;4992995;28;20065;-70
2023/05/15 09:59:23;;;;;;;4.15;3.55;;;;;;;;;;4992220;28;20034;-71
2023/05/15 10:01:49;;;;;;;;;;;;;;;;;;4992401;28;20018;-73
2023/05/15 10:04:16;;;;;;;5.13;3.30;;;;;;;;;;4992123;28;20017;-68
2023/05/15 10:06:43;;;;;;;4.07;3.20;;;;;;;;;;4992411;28;20026;-71
2023/05/15 10:09:10;;;;;;;5.68;3.20;;;;;;;;;;4992592;28;20034;-69
2023/05/15 10:11:37;;;;;;;5.18;3.03;;;;;;;;;;4992249;28;20034;-71
2023/05/15 10:14:05;;;;;;;6.70;3.30;;;;;;;;;;4991846;28;20064;-69
2023/05/15 10:16:34;;;;;;;7.55;2.80;;;;;;;;;;4992792;28;20022;-71
2023/05/15 10:19:04;;;;;;;5.60;3.20;;;;;;;;;;4991881;28;20061;-68
2023/05/15 10:21:31;;;;;;;4.15;3.35;;;;;;;;;;4992042;28;20032;-66
2023/05/15 10:23:59;;;;;;;4.95;3.33;;;;;;;;;;4992074;28;20034;-66
2023/05/15 10:26:38;;;;;;;4.22;2.70;;;;;;;;;;4992288;28;20026;-66
2023/05/15 10:29:14;;;;;;;4.95;2.90;;;;;;;;;;4992371;28;20030;-66
2023/05/15 10:31:41;;;;;;;4.57;2.80;;;;;;;;;;4992374;28;20044;-67
2023/05/15 10:34:08;;;;;;;3.03;2.63;;;;;;;;;;4992270;28;20038;-67
2023/05/15 10:36:35;;;;;;;2.95;2.47;;;;;;;;;;4992210;28;20408;-67
2023/05/15 10:39:02;;;;;;;4.80;2.45;;;;;;;;;;4992294;28;20036;-67
2023/05/15 10:41:29;;;;;;;5.57;2.58;;;;;;;;;;4992310;28;20019;-67
2023/05/15 10:43:59;;;;;;;6.03;2.75;;;;;;;;;;5007193;28;20034;-67
2023/05/15 10:46:27;;;;;;;5.13;2.90;;;;;;;;;;4992020;28;20026;-67
2023/05/15 10:48:53;;;;;;;5.25;2.85;;;;;;;;;;4992252;28;20018;-67
2023/05/15 10:51:28;;;;;;;4.28;2.75;;;;;;;;;;4992260;28;20028;-66
2023/05/15 10:53:55;;;;;;;4.75;3.20;;;;;;;;;;4992091;28;20034;-67
2023/05/15 10:56:36;;;;;;;4.45;2.72;;;;;;;;;;4991963;28;20026;-67
2023/05/15 10:59:11;;;;;;;4.22;3.00;;;;;;;;;;4992224;28;20052;-66
2023/05/15 11:01:38;;;;;;;3.83;3.38;;;;;;;;;;4992215;28;20021;-67
2023/05/15 11:04:18;;;;;;;3.83;3.00;;;;;;;;;;4992304;28;20034;-67
2023/05/15 11:06:48;;;;;;;5.43;2.37;;;;;;;;;;4992170;28;20080;-66
2023/05/15 11:09:23;;;;;;;6.25;3.72;;;;;;;;;;4992162;28;20053;-66
2023/05/15 11:11:54;;;;;;;8.10;3.10;;;;;;;;;;4992042;28;20397;-66
2023/05/15 11:14:28;;;;;;;4.97;3.75;;;;;;;;;;4991768;28;20046;-67
2023/05/15 11:16:56;;;;;;;3.95;2.85;;;;;;;;;;4991651;28;20502;-66
2023/05/15 11:19:28;;;;;;;3.53;2.80;;;;;;;;;;4992180;28;20037;-66
2023/05/15 11:21:58;;;;;;;4.85;3.17;;;;;;;;;;4994170;28;20029;-67
2023/05/15 11:24:31;;;;;;;5.53;3.50;;;;;;;;;;4995191;28;20053;-68
2023/05/15 11:27:04;;;;;;;3.97;2.80;;;;;;;;;;4993599;28;20029;-69
2023/05/15 11:29:30;;;;;;;9.95;3.58;;;;;;;;;;4994014;28;20026;-70
2023/05/15 11:31:57;;;;;;;6.30;3.17;;;;;;;;;;4994322;28;20045;-69
2023/05/15 11:34:33;;;;;;;6.75;3.15;;;;;;;;;;4992816;28;20045;-68
2023/05/15 11:36:59;;;;;;;2.95;2.63;;;;;;;;;;4994679;28;20057;-69
2023/05/15 11:39:27;;;;;;;3.50;2.92;;;;;;;;;;4994469;28;20018;-67
2023/05/15 11:41:56;;;;;;;6.43;2.67;;;;;;;;;;4994005;28;20495;-69
2023/05/15 11:44:23;;;;;;;4.65;2.78;;;;;;;;;;4993942;28;20030;-67
2023/05/15 11:46:50;;;;;;;8.90;3.42;;;;;;;;;;4991632;28;20026;-68
2023/05/15 11:49:19;;;;;;;5.35;2.90;;;;;;;;;;4993619;28;20033;-69
2023/05/15 11:51:49;;;;;;;8.57;3.25;;;;;;;;;;4989646;28;20032;-68
2023/05/15 11:54:17;;;;;;;9.30;3.00;;;;;;;;;;4993922;28;20034;-68
2023/05/15 11:56:44;;;;;;;3.63;2.70;;;;;;;;;;4992809;28;20022;-67
2023/05/15 11:59:13;;;;;;;7.20;2.97;;;;;;;;;;4993694;28;20045;-69
2023/05/15 12:01:46;;;;;;;6.03;2.83;;;;;;;;;;4990254;28;20018;-68
2023/05/15 12:04:16;;;;;;;4.70;2.90;;;;;;;;;;4980487;28;20500;-68
2023/05/15 12:06:43;;;;;;;3.60;2.67;;;;;;;;;;4992587;28;20030;-68
2023/05/15 12:09:18;;;;;;;3.55;2.83;;;;;;;;;;4993645;28;20030;-69
2023/05/15 12:11:51;;;;;;;4.00;2.72;;;;;;;;;;4991515;28;20018;-70
2023/05/15 12:14:17;;;;;;;5.03;2.80;;;;;;;;;;4988576;28;20057;-67
2023/05/15 12:16:44;;;;;;;4.25;2.80;;;;;;;;;;4992978;28;20084;-67
2023/05/15 12:19:10;;;;;;;6.10;2.80;;;;;;;;;;4992260;28;20026;-70
2023/05/15 12:21:42;;;;;;;7.38;2.75;;;;;;;;;;4992926;28;20021;-67
2023/05/15 12:24:11;;;;;;;3.13;2.60;;;;;;;;;;4992693;28;20015;-68
2023/05/15 12:26:38;;;;;;;5.65;3.08;;;;;;;;;;4978510;28;20066;-66
2023/05/15 12:29:05;;;;;;;4.95;3.10;;;;;;;;;;4991466;28;20040;-67
2023/05/15 12:31:33;;;;;;;7.13;3.28;;;;;;;;;;4991582;28;20053;-68
2023/05/15 12:33:59;;;;;;;5.38;3.67;;;;;;;;;;4991121;28;20403;-70
2023/05/15 12:36:30;;;;;;;8.05;3.47;;;;;;;;;;4993028;28;20072;-68
2023/05/15 12:38:56;;;;;;;;;;;;;;;;;;4974325;28;20034;-74
2023/05/15 12:41:27;;;;;;;8.73;3.45;;;;;;;;;;4985784;28;19905;-72
2023/05/15 12:43:54;;;;;;;4.40;3.65;;;;;;;;;;4982694;28;20018;-67
2023/05/15 12:46:25;;;;;;;4.05;3.47;;;;;;;;;;4993437;28;20026;-67
2023/05/15 12:48:51;;;;;;;7.65;3.40;;;;;;;;;;4992991;28;20511;-69
2023/05/15 12:51:17;;;;;;;7.60;3.72;;;;;;;;;;4991970;28;20046;-67
2023/05/15 12:53:46;;;;;;;4.15;3.35;;;;;;;;;;4991911;28;20537;-68
2023/05/15 12:56:16;;;;;;;6.10;3.13;;;;;;;;;;4993144;28;20032;-70
2023/05/15 12:58:42;;;;;;;5.20;2.95;;;;;;;;;;4992615;28;20093;-70
2023/05/15 13:01:08;;;;;;;4.38;2.95;;;;;;;;;;4984381;28;20049;-68
2023/05/15 13:03:35;;;;;;;4.47;2.92;;;;;;;;;;4984769;28;20029;-69
2023/05/15 13:06:05;;;;;;;4.03;3.05;;;;;;;;;;4979784;28;20045;-69
2023/05/15 13:08:32;;;;;;;5.68;3.22;;;;;;;;;;4981728;28;20037;-69
2023/05/15 13:10:59;;;;;;;3.50;3.08;;;;;;;;;;4987574;28;20034;-69
2023/05/15 13:13:42;;;;;;;12.73;3.55;;;;;;;;;;4992892;28;20518;-70
2023/05/15 13:16:25;;;;;;;5.38;3.13;;;;;;;;;;4993017;28;20033;-69
2023/05/15 13:18:52;;;;;;;7.38;3.50;;;;;;;;;;4993111;28;20030;-69
2023/05/15 13:21:19;;;;;;;4.80;3.13;;;;;;;;;;4990623;28;20484;-69
2023/05/15 13:23:45;;;;;;;9.32;4.15;;;;;;;;;;4992230;28;20031;-69
2023/05/15 13:26:12;;;;;;;9.73;3.50;;;;;;;;;;4991428;28;20034;-69
2023/05/15 13:28:38;;;;;;;14.30;3.92;;;;;;;;;;4991473;28;20030;-70
2023/05/15 13:31:05;;;;;;;9.55;3.45;;;;;;;;;;4992203;28;20026;-68
2023/05/15 13:33:32;;;;;;;9.15;3.42;;;;;;;;;;4992378;28;20055;-68
2023/05/15 13:35:59;;;;;;;5.72;3.33;;;;;;;;;;4992064;28;20025;-68
2023/05/15 13:38:25;;;;;;;6.40;3.53;;;;;;;;;;4978881;28;20037;-68
2023/05/15 13:40:51;;;;;;;5.72;3.60;;;;;;;;;;4973102;28;20019;-67
2023/05/15 13:43:18;;;;;;;6.97;3.83;;;;;;;;;;4972813;28;20030;-69
2023/05/15 13:45:44;;;;;;;7.80;3.67;;;;;;;;;;4976195;28;20026;-69
2023/05/15 13:48:10;;;;;;;7.30;3.63;;;;;;;;;;4985303;28;20026;-69
2023/05/15 13:50:37;;;;;;;6.97;3.20;;;;;;;;;;4991958;28;20038;-69
2023/05/15 13:53:03;;;;;;;5.88;3.65;;;;;;;;;;4991737;28;20026;-68
2023/05/15 13:55:30;;;;;;;5.40;3.65;;;;;;;;;;4992030;28;20036;-68
2023/05/15 13:57:56;;;;;;;6.75;3.65;;;;;;;;;;4989802;28;20037;-68
2023/05/15 14:00:22;;;;;;;5.10;3.13;;;;;;;;;;4984752;28;20042;-69
2023/05/15 14:02:49;;;;;;;6.75;3.92;;;;;;;;;;4991604;28;20025;-69
2023/05/15 14:05:17;;;;;;;6.25;3.50;;;;;;;;;;4991210;28;20044;-69
2023/05/15 14:07:43;;;;;;;8.52;3.28;;;;;;;;;;4989846;28;20387;-68
2023/05/15 14:10:10;;;;;;;4.57;3.20;;;;;;;;;;4992126;28;20026;-69
2023/05/15 14:12:37;;;;;;;5.82;3.53;;;;;;;;;;4990387;28;20021;-69
2023/05/15 14:15:03;;;;;;;3.90;3.25;;;;;;;;;;4979212;28;20030;-68
2023/05/15 14:17:30;;;;;;;4.30;3.33;;;;;;;;;;4991831;28;20030;-68
2023/05/15 14:19:56;;;;;;;7.82;3.97;;;;;;;;;;4988301;28;20385;-69
2023/05/15 14:22:23;;;;;;;6.82;3.15;;;;;;;;;;4974016;28;20027;-69
2023/05/15 14:24:51;;;;;;;4.97;3.40;;;;;;;;;;4976221;28;20383;-67
2023/05/15 14:27:17;;;;;;;5.28;3.17;;;;;;;;;;4982084;28;20022;-68
2023/05/15 14:29:43;;;;;;;4.43;3.33;;;;;;;;;;4981820;28;20034;-68
2023/05/15 14:32:10;;;;;;;5.65;3.50;;;;;;;;;;5015294;28;20042;-70
2023/05/15 14:34:36;;;;;;;4.65;2.95;;;;;;;;;;4982385;28;20040;-69
2023/05/15 14:37:02;;;;;;;4.93;3.08;;;;;;;;;;4985690;28;20076;-69
2023/05/15 14:39:29;;;;;;;4.40;3.15;;;;;;;;;;4989399;28;20056;-69